createdAt,value
2023-03-29T00:04:02.679Z,101202.81
2023-03-29T00:09:06.626Z,101208.75
2023-03-29T00:14:09.042Z,101201.66
2023-03-29T00:19:11.083Z,101209.28
2023-03-29T00:24:13.193Z,101208.28
2023-03-29T00:29:15.190Z,101203.72
2023-03-29T00:34:17.326Z,101195.75
2023-03-29T00:39:20.990Z,101192.97
2023-03-29T00:44:41.515Z,101198.91
2023-03-29T00:49:43.557Z,101188.22
2023-03-29T00:54:46.729Z,101199.38
2023-03-29T00:59:50.727Z,101198.47
2023-03-29T01:04:59.635Z,101205.13
2023-03-29T01:10:09.434Z,101204.94
2023-03-29T01:15:15.674Z,101205.66
2023-03-29T01:20:24.283Z,101202.97
2023-03-29T01:25:48.407Z,101195.69
2023-03-29T01:31:25.531Z,101194.63
2023-03-29T01:36:52.113Z,101184.84
2023-03-29T01:42:35.448Z,101175.16
2023-03-29T01:48:03.012Z,101178.41
2023-03-29T01:53:25.261Z,101181.72
2023-03-29T01:58:34.039Z,101178.94
2023-03-29T02:03:42.752Z,101183.84
2023-03-29T02:08:46.110Z,101179.28
2023-03-29T02:13:48.374Z,101176.50
2023-03-29T02:18:53.170Z,101177.31
2023-03-29T02:23:59.134Z,101186.53
2023-03-29T02:29:01.485Z,101186.25
2023-03-29T02:34:33.196Z,101184.19
2023-03-29T02:39:37.227Z,101187.28
2023-03-29T02:44:42.269Z,101189.63
2023-03-29T02:49:44.538Z,101191.94
2023-03-29T02:54:50.584Z,101192.50
2023-03-29T02:59:57.684Z,101201.78
2023-03-29T03:04:59.673Z,101203.31
2023-03-29T03:10:02.012Z,101200.59
2023-03-29T03:15:05.877Z,101201.22
2023-03-29T03:20:15.208Z,101212.22
2023-03-29T03:25:21.998Z,101205.84
2023-03-29T03:30:24.201Z,101208.25
2023-03-29T03:35:26.148Z,101202.06
2023-03-29T03:40:28.458Z,101207.66
2023-03-29T03:45:31.688Z,101213.38
2023-03-29T03:50:33.779Z,101209.78
2023-03-29T03:55:36.267Z,101212.19
2023-03-29T04:00:38.337Z,101199.63
2023-03-29T04:05:41.275Z,101203.00
2023-03-29T04:10:44.290Z,101206.00
2023-03-29T04:15:46.419Z,101204.91
2023-03-29T04:20:49.065Z,101214.09
2023-03-29T04:25:55.594Z,101216.19
2023-03-29T04:30:57.587Z,101217.41
2023-03-29T04:35:59.992Z,101219.19
2023-03-29T04:41:05.109Z,101219.81
2023-03-29T04:46:08.223Z,101211.06
2023-03-29T04:51:10.360Z,101216.13
2023-03-29T04:56:12.615Z,101226.41
2023-03-29T05:01:14.645Z,101230.41
2023-03-29T05:06:17.255Z,101224.31
2023-03-29T05:11:20.068Z,101214.75
2023-03-29T05:16:22.172Z,101213.44
2023-03-29T05:21:26.394Z,101212.75
2023-03-29T05:26:28.451Z,101207.72
2023-03-29T05:31:30.475Z,101212.91
2023-03-29T05:36:32.826Z,101210.53
2023-03-29T05:41:34.925Z,101212.75
2023-03-29T05:46:37.061Z,101209.53
2023-03-29T05:51:39.112Z,101210.44
2023-03-29T05:56:42.392Z,101213.41
2023-03-29T06:01:47.280Z,101203.69
2023-03-29T06:06:49.337Z,101201.13
2023-03-29T06:11:51.551Z,101209.59
2023-03-29T06:16:53.762Z,101206.44
2023-03-29T06:21:55.795Z,101206.28
2023-03-29T06:26:57.833Z,101208.84
2023-03-29T06:32:00.530Z,101205.72
2023-03-29T06:37:02.353Z,101202.91
2023-03-29T06:42:19.959Z,101194.06
2023-03-29T06:47:29.662Z,101201.88
2023-03-29T06:52:31.877Z,101194.19
2023-03-29T06:57:34.303Z,101195.91
2023-03-29T07:02:37.228Z,101195.34
2023-03-29T07:07:55.308Z,101197.28
2023-03-29T07:12:57.612Z,101186.38
2023-03-29T07:17:59.926Z,101184.47
2023-03-29T07:23:01.843Z,101187.72
2023-03-29T07:28:04.191Z,101191.06
2023-03-29T07:33:06.270Z,101192.44
2023-03-29T07:38:08.524Z,101179.75
2023-03-29T07:43:12.000Z,101177.81
2023-03-29T07:48:14.405Z,101174.41
2023-03-29T07:53:16.700Z,101180.09
2023-03-29T07:58:19.054Z,101173.94
2023-03-29T08:03:21.210Z,101168.22
2023-03-29T08:08:23.056Z,101156.34
2023-03-29T08:13:25.139Z,101152.31
2023-03-29T08:18:27.029Z,101151.84
2023-03-29T08:23:29.036Z,101139.91
2023-03-29T08:28:30.978Z,101147.28
2023-03-29T08:33:33.107Z,101138.88
2023-03-29T08:38:34.996Z,101134.94
2023-03-29T08:43:52.375Z,101122.81
2023-03-29T08:48:59.185Z,101121.25
2023-03-29T08:54:35.344Z,101117.03
2023-03-29T08:59:37.911Z,101126.03
2023-03-29T09:04:42.843Z,101121.78
2023-03-29T09:09:44.906Z,101121.97
2023-03-29T09:15:05.093Z,101116.75
2023-03-29T09:20:32.960Z,101116.00
2023-03-29T09:26:02.436Z,101111.72
2023-03-29T09:31:17.090Z,101091.53
2023-03-29T09:36:26.045Z,101092.50
2023-03-29T09:41:44.173Z,101089.91
2023-03-29T09:47:00.930Z,101087.31
2023-03-29T09:52:09.509Z,101088.28
2023-03-29T09:57:17.273Z,101083.84
2023-03-29T10:02:21.334Z,101078.53
2023-03-29T10:07:23.813Z,101074.06
2023-03-29T10:12:26.432Z,101070.47
2023-03-29T10:17:32.998Z,101060.66
2023-03-29T10:22:38.226Z,101073.03
2023-03-29T10:27:44.020Z,101060.44
2023-03-29T10:32:46.551Z,101057.69
2023-03-29T10:37:55.834Z,101049.47
2023-03-29T10:43:22.286Z,101049.16
2023-03-29T10:48:28.925Z,101041.44
2023-03-29T10:53:34.492Z,101034.47
2023-03-29T10:59:10.435Z,101032.91
2023-03-29T11:04:16.251Z,101036.63
2023-03-29T11:09:53.509Z,101022.47
2023-03-29T11:15:03.489Z,101012.78
2023-03-29T11:20:29.474Z,100999.34
2023-03-29T11:25:37.521Z,101005.59
2023-03-29T11:30:46.270Z,100990.38
2023-03-29T11:36:02.638Z,100980.53
2023-03-29T11:41:27.992Z,100976.06
2023-03-29T11:46:47.189Z,100961.75
2023-03-29T11:52:04.466Z,100960.63
2023-03-29T11:57:12.775Z,100964.13
2023-03-29T12:02:29.288Z,100952.56
2023-03-29T12:07:37.288Z,100936.47
2023-03-29T12:12:48.906Z,100944.50
2023-03-29T12:18:02.923Z,100929.19
2023-03-29T12:23:07.693Z,100929.97
2023-03-29T12:28:18.740Z,100911.94
2023-03-29T12:33:43.835Z,100908.19
2023-03-29T12:38:48.356Z,100904.53
2023-03-29T12:43:51.331Z,100900.81
2023-03-29T12:49:11.673Z,100895.34
2023-03-29T12:54:21.473Z,100883.69
2023-03-29T12:59:23.538Z,100881.81
2023-03-29T13:04:56.163Z,100883.38
2023-03-29T13:10:01.763Z,100887.66
2023-03-29T13:15:21.932Z,100872.38
2023-03-29T13:20:47.028Z,100879.34
2023-03-29T13:26:20.035Z,100871.22
2023-03-29T13:31:31.092Z,100868.34
2023-03-29T13:37:08.792Z,100866.41
2023-03-29T13:42:24.516Z,100857.31
2023-03-29T13:47:27.411Z,100852.72
2023-03-29T13:52:34.764Z,100849.56
2023-03-29T13:57:58.199Z,100841.78
2023-03-29T14:03:02.902Z,100847.50
2023-03-29T14:08:35.865Z,100840.50
2023-03-29T14:13:38.751Z,100841.66
2023-03-29T14:18:42.334Z,100843.59
2023-03-29T14:23:47.268Z,100839.41
2023-03-29T14:28:56.810Z,100826.09
2023-03-29T14:34:04.403Z,100831.59
2023-03-29T14:39:21.961Z,100817.50
2023-03-29T14:44:27.803Z,100822.97
2023-03-29T14:49:30.474Z,100825.19
2023-03-29T14:54:34.342Z,100811.97
2023-03-29T14:59:41.601Z,100814.91
2023-03-29T15:04:43.650Z,100811.59
2023-03-29T15:09:46.338Z,100801.19
2023-03-29T15:14:51.910Z,100804.25
2023-03-29T15:20:00.201Z,100796.41
2023-03-29T15:25:02.616Z,100782.38
2023-03-29T15:30:15.744Z,100787.78
2023-03-29T15:35:25.338Z,100784.38
2023-03-29T15:40:28.441Z,100777.38
2023-03-29T15:45:30.606Z,100778.38
2023-03-29T15:50:32.825Z,100771.41
2023-03-29T15:55:35.476Z,100762.63
2023-03-29T16:00:41.115Z,100759.19
2023-03-29T16:05:44.482Z,100753.03
2023-03-29T16:10:47.407Z,100739.81
2023-03-29T16:15:49.927Z,100747.84
2023-03-29T16:20:52.117Z,100737.31
2023-03-29T16:25:54.177Z,100741.78
2023-03-29T16:30:56.195Z,100737.34
2023-03-29T16:35:58.268Z,100728.50
2023-03-29T16:41:00.670Z,100732.06
2023-03-29T16:46:02.989Z,100723.22
2023-03-29T16:51:06.133Z,100717.94
2023-03-29T16:56:08.521Z,100717.06
2023-03-29T17:01:13.976Z,100716.22
2023-03-29T17:06:16.691Z,100710.91
2023-03-29T17:11:18.898Z,100719.81
2023-03-29T17:16:21.476Z,100718.03
2023-03-29T17:21:24.103Z,100724.25
2023-03-29T17:26:26.455Z,100713.63
2023-03-29T17:31:29.095Z,100709.19
2023-03-29T17:36:35.028Z,100713.59
2023-03-29T17:41:37.553Z,100727.69
2023-03-29T17:46:40.069Z,100716.22
2023-03-29T17:51:51.321Z,100715.34
2023-03-29T17:56:54.308Z,100716.19
2023-03-29T18:01:58.409Z,100722.28
2023-03-29T18:07:02.984Z,100719.63
2023-03-29T18:12:06.317Z,100728.38
2023-03-29T18:17:10.584Z,100734.53
2023-03-29T18:22:14.085Z,100734.47
2023-03-29T18:27:17.011Z,100734.44
2023-03-29T18:32:20.313Z,100736.19
2023-03-29T18:37:24.723Z,100731.69
2023-03-29T18:42:31.776Z,100722.81
2023-03-29T18:47:36.057Z,100726.28
2023-03-29T18:52:39.313Z,100712.06
2023-03-29T18:57:43.800Z,100712.91
2023-03-29T19:02:46.518Z,100714.63
2023-03-29T19:07:50.393Z,100707.47
2023-03-29T19:12:53.497Z,100701.25
2023-03-29T19:17:56.647Z,100692.41
2023-03-29T19:23:00.114Z,100672.06
2023-03-29T19:28:05.670Z,100668.53
2023-03-29T19:33:08.473Z,100657.00
2023-03-29T19:38:12.795Z,100660.47
2023-03-29T19:43:17.403Z,100663.06
2023-03-29T19:48:23.576Z,100658.59
2023-03-29T19:53:27.830Z,100650.63
2023-03-29T19:58:30.659Z,100654.09
2023-03-29T20:03:34.549Z,100658.44
2023-03-29T20:08:39.640Z,100647.81
2023-03-29T20:13:43.536Z,100651.25
2023-03-29T20:18:49.979Z,100645.00
2023-03-29T20:23:52.121Z,100641.44
2023-03-29T20:28:54.207Z,100640.50
2023-03-29T20:33:57.615Z,100642.19
2023-03-29T20:39:00.649Z,100629.00
2023-03-29T20:44:03.232Z,100625.44
2023-03-29T20:49:09.102Z,100625.38
2023-03-29T20:54:11.590Z,100629.78
2023-03-29T20:59:13.470Z,100634.13
2023-03-29T21:04:15.443Z,100632.31
2023-03-29T21:09:21.912Z,100636.66
2023-03-29T21:14:23.940Z,100624.28
2023-03-29T21:19:26.089Z,100631.28
2023-03-29T21:24:28.116Z,100636.50
2023-03-29T21:29:30.163Z,100618.00
2023-03-29T21:34:32.178Z,100617.91
2023-03-29T21:39:34.184Z,100604.63
2023-03-29T21:44:36.300Z,100603.72
2023-03-29T21:49:38.424Z,100611.59
2023-03-29T21:54:40.457Z,100612.44
2023-03-29T21:59:42.556Z,100614.16
2023-03-29T22:04:44.675Z,100603.53
2023-03-29T22:09:47.443Z,100610.44
2023-03-29T22:14:49.494Z,100605.09
2023-03-29T22:19:51.890Z,100593.59
2023-03-29T22:24:55.036Z,100590.91
2023-03-29T22:29:58.825Z,100597.84
2023-03-29T22:35:00.863Z,100583.69
2023-03-29T22:40:03.061Z,100587.16
2023-03-29T22:45:06.680Z,100574.75
2023-03-29T22:50:09.186Z,100564.09
2023-03-29T22:55:11.428Z,100564.88
2023-03-29T23:00:13.931Z,100558.59
2023-03-29T23:05:16.276Z,100543.59
2023-03-29T23:10:18.355Z,100540.03
2023-03-29T23:15:23.037Z,100541.69
2023-03-29T23:20:25.049Z,100545.16
2023-03-29T23:25:27.847Z,100533.69
2023-03-29T23:30:32.854Z,100537.16
2023-03-29T23:35:34.837Z,100527.47
2023-03-29T23:40:36.851Z,100531.00
2023-03-29T23:45:40.020Z,100532.69
2023-03-29T23:50:46.592Z,100526.50
2023-03-29T23:55:48.728Z,100530.00
